createdAt,value
2024-05-09T00:00:36.451Z,12.00
2024-05-09T00:01:46.183Z,12.00
2024-05-09T00:02:49.848Z,12.00
2024-05-09T00:03:56.271Z,12.00
2024-05-09T00:05:00.091Z,12.00
2024-05-09T00:06:11.615Z,12.00
2024-05-09T00:07:15.639Z,12.00
2024-05-09T00:08:22.882Z,12.00
2024-05-09T00:09:26.922Z,12.00
2024-05-09T00:10:37.214Z,12.00
2024-05-09T00:11:43.349Z,11.90
2024-05-09T00:12:50.274Z,11.90
2024-05-09T00:13:54.113Z,11.90
2024-05-09T00:15:00.460Z,11.90
2024-05-09T00:16:04.569Z,11.90
2024-05-09T00:17:11.367Z,11.90
2024-05-09T00:18:17.362Z,11.90
2024-05-09T00:19:24.745Z,11.90
2024-05-09T00:20:36.967Z,11.80
2024-05-09T00:21:49.014Z,11.80
2024-05-09T00:22:52.602Z,11.80
2024-05-09T00:23:58.953Z,11.80
2024-05-09T00:25:02.952Z,11.80
2024-05-09T00:26:09.515Z,11.80
2024-05-09T00:27:13.562Z,11.80
2024-05-09T00:28:20.152Z,11.70
2024-05-09T00:29:24.186Z,11.70
2024-05-09T00:30:36.201Z,11.70
2024-05-09T00:31:41.117Z,11.70
2024-05-09T00:32:47.889Z,11.70
2024-05-09T00:33:52.059Z,11.70
2024-05-09T00:34:58.925Z,11.70
2024-05-09T00:36:02.717Z,11.60
2024-05-09T00:37:12.029Z,11.60
2024-05-09T00:38:18.425Z,11.60
2024-05-09T00:39:25.002Z,11.60
2024-05-09T00:40:39.064Z,11.60
2024-05-09T00:41:47.933Z,11.60
2024-05-09T00:42:51.949Z,11.60
2024-05-09T00:44:01.143Z,11.50
2024-05-09T00:45:06.994Z,11.50
2024-05-09T00:46:14.109Z,11.50
2024-05-09T00:47:18.493Z,11.50
2024-05-09T00:48:25.315Z,11.50
2024-05-09T00:49:30.113Z,11.50
2024-05-09T00:50:38.029Z,11.50
2024-05-09T00:51:43.658Z,11.50
2024-05-09T00:52:53.381Z,11.50
2024-05-09T00:53:57.094Z,11.50
2024-05-09T00:55:04.515Z,11.50
2024-05-09T00:56:12.590Z,11.40
2024-05-09T00:57:21.136Z,11.40
2024-05-09T00:58:28.446Z,11.40
2024-05-09T00:59:39.215Z,11.40
2024-05-09T01:00:43.300Z,11.40
2024-05-09T01:01:51.105Z,11.40
2024-05-09T01:02:55.259Z,11.40
2024-05-09T01:04:02.837Z,11.40
2024-05-09T01:05:08.329Z,11.30
2024-05-09T01:06:16.281Z,11.30
2024-05-09T01:07:20.472Z,11.30
2024-05-09T01:08:32.388Z,11.30
2024-05-09T01:09:36.561Z,11.30
2024-05-09T01:10:45.201Z,11.30
2024-05-09T01:11:51.173Z,11.20
2024-05-09T01:12:57.887Z,11.20
2024-05-09T01:14:01.592Z,11.20
2024-05-09T01:15:06.181Z,11.20
2024-05-09T01:16:13.389Z,11.20
2024-05-09T01:17:18.438Z,11.20
2024-05-09T01:18:25.260Z,11.20
2024-05-09T01:19:31.606Z,11.20
2024-05-09T01:20:42.352Z,11.10
2024-05-09T01:21:48.120Z,11.10
2024-05-09T01:22:56.515Z,11.10
2024-05-09T01:24:03.363Z,11.10
2024-05-09T01:25:13.594Z,11.10
2024-05-09T01:26:17.657Z,11.10
2024-05-09T01:27:22.032Z,11.10
2024-05-09T01:28:28.966Z,11.00
2024-05-09T01:29:33.124Z,11.00
2024-05-09T01:30:40.409Z,11.00
2024-05-09T01:31:45.245Z,11.00
2024-05-09T01:32:51.905Z,11.00
2024-05-09T01:33:56.380Z,11.00
2024-05-09T01:35:03.291Z,11.00
2024-05-09T01:36:08.062Z,10.90
2024-05-09T01:37:14.404Z,10.90
2024-05-09T01:38:20.149Z,10.90
2024-05-09T01:39:29.436Z,10.90
2024-05-09T01:40:37.962Z,10.90
2024-05-09T01:41:46.368Z,10.90
2024-05-09T01:42:50.512Z,10.90
2024-05-09T01:43:57.145Z,10.80
2024-05-09T01:45:00.968Z,10.80
2024-05-09T01:46:08.006Z,10.80
2024-05-09T01:47:14.995Z,10.80
2024-05-09T01:48:21.841Z,10.80
2024-05-09T01:49:26.114Z,10.80
2024-05-09T01:50:38.487Z,10.70
2024-05-09T01:51:45.270Z,10.70
2024-05-09T01:52:51.883Z,10.70
2024-05-09T01:53:56.792Z,10.70
2024-05-09T01:55:07.195Z,10.70
2024-05-09T01:56:11.763Z,10.70
2024-05-09T01:57:18.353Z,10.70
2024-05-09T01:58:22.166Z,10.70
2024-05-09T01:59:28.994Z,10.60
2024-05-09T02:00:40.301Z,10.60
2024-05-09T02:01:56.672Z,10.60
2024-05-09T02:03:02.024Z,10.60
2024-05-09T02:04:09.166Z,10.60
2024-05-09T02:05:17.351Z,10.60
2024-05-09T02:06:23.937Z,10.50
2024-05-09T02:07:28.771Z,10.50
2024-05-09T02:08:35.244Z,10.50
2024-05-09T02:09:39.040Z,10.50
2024-05-09T02:10:49.168Z,10.50
2024-05-09T02:11:54.385Z,10.50
2024-05-09T02:13:03.516Z,10.50
2024-05-09T02:14:07.365Z,10.40
2024-05-09T02:15:14.082Z,10.40
2024-05-09T02:16:18.048Z,10.40
2024-05-09T02:17:24.760Z,10.40
2024-05-09T02:18:28.763Z,10.40
2024-05-09T02:19:35.607Z,10.40
2024-05-09T02:20:41.342Z,10.40
2024-05-09T02:21:48.078Z,10.40
2024-05-09T02:22:52.364Z,10.30
2024-05-09T02:23:58.873Z,10.30
2024-05-09T02:25:03.288Z,10.30
2024-05-09T02:26:10.242Z,10.30
2024-05-09T02:27:17.143Z,10.30
2024-05-09T02:28:22.359Z,10.30
2024-05-09T02:29:28.847Z,10.30
2024-05-09T02:30:39.972Z,10.30
2024-05-09T02:31:48.614Z,10.30
2024-05-09T02:32:52.723Z,10.30
2024-05-09T02:33:56.911Z,10.20
2024-05-09T02:35:03.479Z,10.20
2024-05-09T02:36:09.415Z,10.20
2024-05-09T02:37:13.822Z,10.20
2024-05-09T02:38:20.528Z,10.20
2024-05-09T02:39:28.038Z,10.20
2024-05-09T02:40:37.208Z,10.20
2024-05-09T02:41:48.111Z,10.10
2024-05-09T02:42:51.754Z,10.10
2024-05-09T02:43:55.572Z,10.10
2024-05-09T02:44:59.346Z,10.10
2024-05-09T02:46:06.375Z,10.10
2024-05-09T02:47:10.091Z,10.10
2024-05-09T02:48:16.428Z,10.10
2024-05-09T02:49:23.153Z,10.10
2024-05-09T02:50:34.449Z,10.10
2024-05-09T02:51:42.888Z,10.10
2024-05-09T02:52:49.479Z,10.00
2024-05-09T02:53:53.195Z,10.00
2024-05-09T02:54:57.193Z,10.00
2024-05-09T02:56:00.942Z,10.00
2024-05-09T02:57:10.045Z,10.00
2024-05-09T02:58:14.069Z,10.00
2024-05-09T02:59:17.742Z,10.00
2024-05-09T03:00:26.741Z,10.00
2024-05-09T03:01:42.322Z,10.00
2024-05-09T03:02:46.295Z,10.00
2024-05-09T03:03:51.792Z,9.90
2024-05-09T03:04:55.832Z,9.90
2024-05-09T03:06:02.441Z,9.90
2024-05-09T03:07:06.985Z,9.90
2024-05-09T03:08:11.150Z,9.90
2024-05-09T03:09:15.124Z,9.90
2024-05-09T03:10:25.667Z,9.90
2024-05-09T03:11:32.370Z,9.90
2024-05-09T03:12:39.449Z,9.90
2024-05-09T03:13:45.953Z,9.90
2024-05-09T03:14:51.728Z,9.80
2024-05-09T03:15:55.386Z,9.80
2024-05-09T03:16:59.640Z,9.80
2024-05-09T03:18:07.154Z,9.80
2024-05-09T03:19:12.350Z,9.80
2024-05-09T03:20:23.386Z,9.80
2024-05-09T03:21:34.404Z,9.80
2024-05-09T03:22:39.097Z,9.80
2024-05-09T03:23:43.936Z,9.80
2024-05-09T03:24:48.535Z,9.70
2024-05-09T03:25:55.171Z,9.70
2024-05-09T03:26:58.942Z,9.70
2024-05-09T03:28:06.498Z,9.70
2024-05-09T03:29:13.758Z,9.70
2024-05-09T03:30:29.251Z,9.70
2024-05-09T03:31:41.306Z,9.70
2024-05-09T03:32:45.753Z,9.70
2024-05-09T03:33:52.698Z,9.70
2024-05-09T03:34:57.230Z,9.60
2024-05-09T03:36:01.789Z,9.70
2024-05-09T03:37:08.782Z,9.60
2024-05-09T03:38:13.123Z,9.60
2024-05-09T03:39:20.735Z,9.60
2024-05-09T03:40:28.960Z,9.60
2024-05-09T03:41:35.195Z,9.60
2024-05-09T03:42:44.903Z,9.60
2024-05-09T03:43:51.539Z,9.60
2024-05-09T03:44:58.329Z,9.60
2024-05-09T03:46:05.909Z,9.60
2024-05-09T03:47:10.550Z,9.60
2024-05-09T03:48:15.258Z,9.60
2024-05-09T03:49:24.834Z,9.50
2024-05-09T03:50:33.925Z,9.50
2024-05-09T03:51:39.609Z,9.50
2024-05-09T03:52:46.253Z,9.50
2024-05-09T03:53:50.349Z,9.50
2024-05-09T03:54:56.475Z,9.50
2024-05-09T03:56:02.676Z,9.50
2024-05-09T03:57:11.134Z,9.50
2024-05-09T03:58:15.142Z,9.50
2024-05-09T03:59:22.509Z,9.50
2024-05-09T04:00:36.951Z,9.50
2024-05-09T04:01:43.351Z,9.50
2024-05-09T04:02:49.519Z,9.50
2024-05-09T04:03:56.328Z,9.50
2024-05-09T04:05:00.290Z,9.50
2024-05-09T04:06:07.928Z,9.50
2024-05-09T04:07:15.572Z,9.50
2024-05-09T04:08:19.539Z,9.50
2024-05-09T04:09:23.891Z,9.50
2024-05-09T04:10:33.885Z,9.50
2024-05-09T04:11:46.859Z,9.50
2024-05-09T04:12:50.651Z,9.50
2024-05-09T04:13:54.970Z,9.50
2024-05-09T04:15:01.542Z,9.50
2024-05-09T04:16:14.120Z,9.50
2024-05-09T04:17:18.058Z,9.50
2024-05-09T04:18:25.435Z,9.50
2024-05-09T04:19:29.932Z,9.50
2024-05-09T04:20:39.752Z,9.50
2024-05-09T04:21:45.184Z,9.50
2024-05-09T04:22:51.615Z,9.60
2024-05-09T04:23:59.550Z,9.60
2024-05-09T04:25:03.822Z,9.60
2024-05-09T04:26:09.345Z,9.70
2024-05-09T04:27:16.279Z,9.70
2024-05-09T04:28:21.015Z,9.80
2024-05-09T04:29:25.800Z,9.80
2024-05-09T04:30:38.552Z,9.90
2024-05-09T04:31:48.591Z,10.00
2024-05-09T04:32:53.205Z,10.00
2024-05-09T04:33:57.559Z,10.10
2024-05-09T04:35:02.495Z,10.20
2024-05-09T04:36:11.332Z,10.20
2024-05-09T04:37:15.946Z,10.30
2024-05-09T04:38:20.248Z,10.30
2024-05-09T04:39:24.691Z,10.40
2024-05-09T04:40:35.448Z,10.40
2024-05-09T04:41:41.303Z,10.40
2024-05-09T04:42:45.918Z,10.50
2024-05-09T04:43:54.053Z,10.50
2024-05-09T04:44:58.814Z,10.50
2024-05-09T04:46:05.987Z,10.50
2024-05-09T04:47:10.425Z,10.60
2024-05-09T04:48:17.776Z,10.60
2024-05-09T04:49:22.226Z,10.70
2024-05-09T04:50:35.579Z,10.70
2024-05-09T04:51:45.940Z,10.80
2024-05-09T04:52:49.935Z,10.90
2024-05-09T04:53:53.984Z,11.00
2024-05-09T04:54:58.982Z,11.20
2024-05-09T04:56:06.214Z,11.20
2024-05-09T04:57:10.487Z,11.40
2024-05-09T04:58:14.582Z,11.50
2024-05-09T04:59:22.383Z,11.60
2024-05-09T05:00:34.702Z,11.70
2024-05-09T05:01:43.831Z,11.90
2024-05-09T05:02:50.266Z,12.00
2024-05-09T05:03:56.148Z,12.20
2024-05-09T05:05:01.464Z,12.30
2024-05-09T05:06:05.823Z,12.50
2024-05-09T05:07:16.160Z,12.60
2024-05-09T05:08:20.815Z,12.70
2024-05-09T05:09:25.021Z,12.90
2024-05-09T05:10:35.911Z,13.00
2024-05-09T05:11:47.157Z,13.10
2024-05-09T05:13:09.515Z,13.30
2024-05-09T05:14:14.143Z,13.50
2024-05-09T05:15:17.724Z,13.60
2024-05-09T05:16:24.813Z,13.80
2024-05-09T05:17:31.502Z,13.90
2024-05-09T05:18:36.259Z,14.10
2024-05-09T05:19:43.723Z,14.20
2024-05-09T05:20:53.759Z,14.40
2024-05-09T05:21:57.973Z,14.50
2024-05-09T05:23:05.238Z,14.70
2024-05-09T05:24:09.228Z,14.80
2024-05-09T05:25:13.949Z,15.00
2024-05-09T05:26:20.688Z,15.20
2024-05-09T05:27:27.322Z,15.30
2024-05-09T05:28:31.110Z,15.50
2024-05-09T05:29:35.254Z,15.60
2024-05-09T05:30:42.838Z,15.80
2024-05-09T05:31:46.953Z,15.90
2024-05-09T05:32:53.926Z,16.10
2024-05-09T05:33:58.451Z,16.20
2024-05-09T05:35:05.147Z,16.40
2024-05-09T05:36:10.391Z,16.50
2024-05-09T05:37:14.337Z,16.70
2024-05-09T05:38:27.510Z,16.80
2024-05-09T05:39:32.728Z,17.00
2024-05-09T05:40:38.980Z,17.20
2024-05-09T05:41:44.234Z,17.40
2024-05-09T05:42:51.097Z,17.50
2024-05-09T05:43:55.106Z,17.70
2024-05-09T05:45:02.459Z,17.80
2024-05-09T05:46:09.807Z,18.00
2024-05-09T05:47:14.642Z,18.20
2024-05-09T05:48:24.722Z,18.30
2024-05-09T05:49:30.234Z,18.50
2024-05-09T05:50:38.472Z,18.70
2024-05-09T05:51:43.069Z,18.80
2024-05-09T05:52:47.334Z,19.00
2024-05-09T05:53:55.386Z,19.20
2024-05-09T05:54:59.277Z,19.40
2024-05-09T05:56:03.522Z,19.60
2024-05-09T05:58:17.556Z,19.90
2024-05-09T05:59:24.738Z,20.10
2024-05-09T06:00:34.992Z,20.30
2024-05-09T06:01:47.892Z,20.50
2024-05-09T06:02:54.840Z,20.70
2024-05-09T06:04:01.549Z,20.80
2024-05-09T06:05:06.537Z,21.00
2024-05-09T06:06:10.493Z,21.20
2024-05-09T06:07:17.280Z,21.40
2024-05-09T06:08:23.406Z,21.60
2024-05-09T06:09:28.242Z,21.70
2024-05-09T06:10:38.118Z,21.90
2024-05-09T06:11:47.143Z,22.10
2024-05-09T06:12:51.518Z,22.20
2024-05-09T06:13:55.850Z,22.40
2024-05-09T06:15:00.872Z,22.50
2024-05-09T06:16:09.863Z,22.70
2024-05-09T06:17:14.071Z,22.80
2024-05-09T06:18:18.263Z,23.00
2024-05-09T06:19:25.927Z,23.10
2024-05-09T06:20:36.494Z,23.30
2024-05-09T06:21:42.568Z,23.50
2024-05-09T06:22:47.335Z,23.70
2024-05-09T06:23:54.987Z,23.80
2024-05-09T06:24:59.162Z,24.00
2024-05-09T06:26:06.213Z,24.20
2024-05-09T06:27:10.358Z,24.30
2024-05-09T06:28:16.203Z,24.50
2024-05-09T06:29:23.009Z,24.70
2024-05-09T06:30:36.514Z,24.80
2024-05-09T06:31:47.648Z,25.00
2024-05-09T06:32:54.529Z,25.20
2024-05-09T06:33:59.139Z,25.40
2024-05-09T06:35:06.956Z,25.50
2024-05-09T06:36:10.872Z,25.70
2024-05-09T06:37:17.486Z,25.80
2024-05-09T06:38:21.373Z,25.90
2024-05-09T06:39:25.619Z,26.00
2024-05-09T06:40:36.756Z,26.10
2024-05-09T06:41:45.976Z,26.20
2024-05-09T06:42:52.261Z,26.30
2024-05-09T06:43:56.544Z,26.40
2024-05-09T06:45:00.607Z,26.40
2024-05-09T06:46:07.794Z,26.50
2024-05-09T06:47:18.236Z,26.50
2024-05-09T06:48:23.474Z,26.60
2024-05-09T06:49:32.056Z,26.70
2024-05-09T06:50:39.741Z,26.80
2024-05-09T06:52:54.211Z,27.00
2024-05-09T06:53:58.315Z,27.10
2024-05-09T06:55:03.191Z,27.20
2024-05-09T06:56:08.969Z,27.30
2024-05-09T06:57:15.764Z,27.50
2024-05-09T06:58:19.641Z,27.50
2024-05-09T06:59:23.748Z,27.60
2024-05-09T07:00:38.139Z,27.70
2024-05-09T07:01:44.859Z,27.80
2024-05-09T07:02:51.727Z,27.90
2024-05-09T07:03:56.118Z,28.10
2024-05-09T07:05:00.746Z,28.20
2024-05-09T07:06:09.932Z,28.30
2024-05-09T07:07:14.439Z,28.40
2024-05-09T07:08:21.564Z,28.50
2024-05-09T07:09:25.736Z,28.60
2024-05-09T07:10:34.971Z,28.70
2024-05-09T07:11:41.051Z,28.80
2024-05-09T07:12:45.112Z,28.90
2024-05-09T07:13:56.052Z,29.00
2024-05-09T07:15:00.761Z,29.10
2024-05-09T07:16:05.423Z,29.20
2024-05-09T07:17:09.747Z,29.30
2024-05-09T07:18:20.498Z,29.40
2024-05-09T07:19:25.646Z,29.50
2024-05-09T07:20:34.559Z,29.60
2024-05-09T07:21:45.776Z,29.80
2024-05-09T07:22:52.461Z,29.90
2024-05-09T07:23:56.382Z,30.00
2024-05-09T07:25:03.316Z,30.20
2024-05-09T07:26:07.061Z,30.20
2024-05-09T07:28:17.295Z,30.40
2024-05-09T07:29:24.321Z,30.60
2024-05-09T07:30:33.311Z,30.70
2024-05-09T07:31:42.016Z,30.80
2024-05-09T07:32:49.253Z,30.90
2024-05-09T07:33:54.269Z,31.00
2024-05-09T07:34:58.620Z,31.10
2024-05-09T07:36:05.834Z,31.20
2024-05-09T07:37:14.966Z,31.30
2024-05-09T07:38:21.749Z,31.50
2024-05-09T07:39:28.959Z,31.60
2024-05-09T07:40:36.848Z,31.70
2024-05-09T07:41:41.202Z,31.90
2024-05-09T07:42:47.966Z,32.00
2024-05-09T07:43:51.832Z,32.10
2024-05-09T07:45:00.887Z,32.30
2024-05-09T07:50:34.424Z,32.70
2024-05-09T07:53:44.127Z,33.00
2024-05-09T07:54:53.229Z,33.20
2024-05-09T07:55:58.080Z,33.30
2024-05-09T07:57:05.285Z,33.40
2024-05-09T07:58:09.552Z,33.50
2024-05-09T07:59:13.519Z,33.60
2024-05-09T08:00:23.603Z,33.80
2024-05-09T08:01:34.324Z,33.90
2024-05-09T08:02:40.744Z,34.10
2024-05-09T08:03:45.974Z,34.30
2024-05-09T08:04:52.298Z,34.40
2024-05-09T08:05:59.146Z,34.50
2024-05-09T08:07:05.107Z,34.70
2024-05-09T08:08:12.346Z,34.80
2024-05-09T08:09:20.966Z,34.90
2024-05-09T08:10:29.219Z,35.00
2024-05-09T08:11:35.237Z,35.10
2024-05-09T08:12:40.342Z,35.20
2024-05-09T08:13:47.397Z,35.40
2024-05-09T08:14:53.191Z,35.50
2024-05-09T08:15:57.607Z,35.60
2024-05-09T08:17:04.425Z,35.70
2024-05-09T08:18:09.559Z,35.80
2024-05-09T08:19:13.646Z,36.00
2024-05-09T08:20:26.649Z,36.10
2024-05-09T08:21:37.938Z,36.20
2024-05-09T08:22:42.237Z,36.30
2024-05-09T08:23:50.069Z,36.40
2024-05-09T08:24:55.579Z,36.50
2024-05-09T08:26:03.366Z,36.50
2024-05-09T08:27:07.399Z,36.50
2024-05-09T08:28:13.428Z,36.60
2024-05-09T08:29:21.115Z,36.60
2024-05-09T08:30:35.581Z,36.70
2024-05-09T08:31:41.219Z,36.80
2024-05-09T08:32:48.328Z,36.80
2024-05-09T08:33:57.467Z,36.90
2024-05-09T08:35:01.884Z,36.90
2024-05-09T08:36:06.405Z,37.00
2024-05-09T08:37:15.712Z,37.10
2024-05-09T08:38:31.601Z,37.20
2024-05-09T08:39:38.384Z,37.30
2024-05-09T08:40:43.323Z,37.40
2024-05-09T08:41:52.296Z,37.60
2024-05-09T08:43:00.674Z,37.70
2024-05-09T08:44:05.008Z,37.80
2024-05-09T08:45:10.856Z,37.90
2024-05-09T08:46:19.302Z,37.90
2024-05-09T08:47:23.671Z,38.00
2024-05-09T08:48:28.262Z,38.10
2024-05-09T08:49:37.671Z,38.10
2024-05-09T08:50:42.480Z,38.20
2024-05-09T08:51:47.149Z,38.30
2024-05-09T08:53:58.258Z,38.30
2024-05-09T08:55:08.255Z,38.40
2024-05-09T08:56:14.031Z,38.40
2024-05-09T08:57:18.414Z,38.40
2024-05-09T08:58:25.553Z,38.50
2024-05-09T08:59:36.613Z,38.60
2024-05-09T09:00:41.546Z,38.60
2024-05-09T09:01:47.334Z,38.60
2024-05-09T09:02:55.956Z,38.70
2024-05-09T09:04:03.599Z,38.70
2024-05-09T09:05:11.399Z,38.80
2024-05-09T09:06:22.717Z,38.80
2024-05-09T09:07:27.308Z,38.90
2024-05-09T09:08:31.832Z,39.10
2024-05-09T09:09:44.068Z,39.20
2024-05-09T09:10:54.344Z,39.20
2024-05-09T09:11:58.533Z,39.30
2024-05-09T09:13:11.424Z,39.40
2024-05-09T09:14:15.801Z,39.50
2024-05-09T09:15:19.603Z,39.60
2024-05-09T09:16:36.989Z,39.70
2024-05-09T09:18:46.454Z,39.90
2024-05-09T09:19:50.710Z,40.00
2024-05-09T09:21:00.993Z,40.10
2024-05-09T09:22:06.076Z,40.20
2024-05-09T09:23:09.927Z,40.20
2024-05-09T09:24:15.814Z,40.30
2024-05-09T09:25:26.396Z,40.20
2024-05-09T09:26:34.760Z,40.10
2024-05-09T09:27:39.055Z,40.00
2024-05-09T09:28:45.253Z,39.90
2024-05-09T09:29:49.993Z,39.70
2024-05-09T09:30:54.360Z,39.50
2024-05-09T09:32:01.749Z,39.40
2024-05-09T09:33:08.930Z,39.30
2024-05-09T09:34:13.270Z,39.30
2024-05-09T09:35:18.227Z,39.20
2024-05-09T09:36:24.817Z,39.10
2024-05-09T09:37:31.066Z,38.80
2024-05-09T09:38:38.982Z,38.40
2024-05-09T09:39:48.986Z,38.00
2024-05-09T09:40:56.764Z,37.60
2024-05-09T09:42:06.546Z,37.20
2024-05-09T09:43:19.436Z,37.00
2024-05-09T09:44:23.865Z,36.80
2024-05-09T09:45:32.289Z,36.70
2024-05-09T09:46:38.070Z,36.60
2024-05-09T09:47:44.148Z,36.50
2024-05-09T09:48:52.790Z,36.40
2024-05-09T09:49:59.808Z,36.50
2024-05-09T09:51:06.129Z,36.60
2024-05-09T09:52:11.350Z,36.80
2024-05-09T09:53:20.098Z,36.90
2024-05-09T09:54:24.666Z,37.00
2024-05-09T09:55:28.772Z,37.10
2024-05-09T09:56:33.445Z,37.20
2024-05-09T09:57:43.933Z,37.20
2024-05-09T09:58:49.470Z,37.20
2024-05-09T09:59:55.880Z,37.20
2024-05-09T10:01:00.325Z,37.20
2024-05-09T10:02:07.845Z,37.20
2024-05-09T10:03:13.492Z,37.20
2024-05-09T10:04:21.939Z,37.20
2024-05-09T10:05:27.639Z,37.00
2024-05-09T10:06:37.037Z,36.80
2024-05-09T10:07:44.248Z,36.50
2024-05-09T10:08:49.667Z,36.20
2024-05-09T10:09:59.662Z,35.80
2024-05-09T10:11:05.934Z,35.40
2024-05-09T10:12:15.223Z,34.90
2024-05-09T10:13:22.312Z,34.50
2024-05-09T10:14:31.042Z,34.00
2024-05-09T10:15:46.032Z,33.60
2024-05-09T10:16:50.872Z,33.10
2024-05-09T10:17:54.917Z,32.70
2024-05-09T10:19:02.077Z,32.30
2024-05-09T10:20:14.756Z,32.00
2024-05-09T10:21:30.592Z,31.60
2024-05-09T10:22:38.227Z,31.20
2024-05-09T10:23:46.149Z,31.00
2024-05-09T10:24:51.201Z,30.70
2024-05-09T10:26:03.094Z,30.40
2024-05-09T10:27:07.337Z,30.20
2024-05-09T10:28:13.567Z,29.90
2024-05-09T10:29:20.794Z,29.80
2024-05-09T10:30:34.116Z,29.60
2024-05-09T10:31:42.624Z,29.60
2024-05-09T10:32:46.379Z,29.60
2024-05-09T10:33:55.650Z,29.70
2024-05-09T10:35:08.158Z,29.80
2024-05-09T10:36:15.477Z,29.90
2024-05-09T10:37:19.718Z,30.10
2024-05-09T10:38:27.141Z,30.30
2024-05-09T10:39:37.393Z,30.40
2024-05-09T10:40:42.464Z,30.60
2024-05-09T10:41:49.467Z,30.80
2024-05-09T10:42:53.636Z,31.00
2024-05-09T10:43:57.873Z,31.20
2024-05-09T10:45:04.938Z,31.30
2024-05-09T10:46:14.816Z,31.50
2024-05-09T10:47:19.202Z,31.50
2024-05-09T10:48:22.962Z,31.50
2024-05-09T10:49:29.517Z,31.40
2024-05-09T10:50:34.557Z,31.30
2024-05-09T10:51:38.777Z,31.20
2024-05-09T10:52:45.737Z,31.00
2024-05-09T10:53:49.963Z,30.90
2024-05-09T10:54:54.494Z,30.80
2024-05-09T10:55:58.841Z,30.60
2024-05-09T10:57:05.465Z,30.50
2024-05-09T10:58:18.524Z,30.40
2024-05-09T10:59:23.941Z,30.20
2024-05-09T11:00:37.746Z,30.10
2024-05-09T11:01:42.129Z,30.00
2024-05-09T11:02:45.965Z,29.90
2024-05-09T11:03:53.397Z,29.80
2024-05-09T11:04:57.527Z,29.70
2024-05-09T11:06:02.358Z,29.60
2024-05-09T11:07:11.228Z,29.50
2024-05-09T11:08:17.344Z,29.40
2024-05-09T11:09:21.547Z,29.40
2024-05-09T11:10:33.600Z,29.30
2024-05-09T11:11:40.945Z,29.20
2024-05-09T11:12:46.455Z,29.10
2024-05-09T11:13:50.373Z,29.00
2024-05-09T11:14:54.975Z,29.00
2024-05-09T11:16:04.763Z,28.90
2024-05-09T11:17:09.862Z,28.80
2024-05-09T11:18:25.893Z,28.70
2024-05-09T11:19:35.441Z,28.60
2024-05-09T11:20:40.208Z,28.50
2024-05-09T11:21:52.629Z,28.40
2024-05-09T11:22:58.598Z,28.30
2024-05-09T11:24:07.302Z,28.20
2024-05-09T11:25:12.606Z,28.20
2024-05-09T11:26:22.935Z,28.10
2024-05-09T11:27:29.588Z,28.10
2024-05-09T11:28:33.454Z,28.10
2024-05-09T11:29:41.256Z,28.00
2024-05-09T11:30:45.286Z,28.00
2024-05-09T11:31:55.182Z,28.00
2024-05-09T11:33:00.532Z,27.90
2024-05-09T11:34:05.762Z,27.80
2024-05-09T11:35:12.309Z,27.80
2024-05-09T11:36:16.356Z,27.70
2024-05-09T11:37:20.294Z,27.70
2024-05-09T11:38:27.093Z,27.70
2024-05-09T11:39:31.061Z,27.60
2024-05-09T11:40:35.279Z,27.60
2024-05-09T11:41:39.653Z,27.60
2024-05-09T11:42:48.196Z,27.60
2024-05-09T11:43:53.217Z,27.60
2024-05-09T11:44:57.103Z,27.60
2024-05-09T11:46:03.565Z,27.50
2024-05-09T11:47:13.356Z,27.50
2024-05-09T11:48:17.739Z,27.50
2024-05-09T11:49:25.338Z,27.60
2024-05-09T11:50:35.227Z,27.60
2024-05-09T11:51:42.938Z,27.60
2024-05-09T11:52:46.528Z,27.70
2024-05-09T11:53:50.712Z,27.80
2024-05-09T11:54:54.604Z,27.80
2024-05-09T11:56:01.874Z,27.90
2024-05-09T11:57:06.915Z,28.00
2024-05-09T11:58:12.828Z,28.10
2024-05-09T11:59:17.400Z,28.20
2024-05-09T12:00:33.914Z,28.20
2024-05-09T12:01:41.232Z,28.40
2024-05-09T12:02:48.243Z,28.50
2024-05-09T12:03:54.671Z,28.60
2024-05-09T12:05:01.973Z,28.60
2024-05-09T12:06:06.594Z,28.70
2024-05-09T12:07:12.968Z,28.80
2024-05-09T12:08:17.087Z,28.80
2024-05-09T12:09:24.025Z,28.90
2024-05-09T12:10:33.415Z,28.90
2024-05-09T12:11:39.734Z,28.90
2024-05-09T12:12:46.298Z,28.90
2024-05-09T12:13:50.421Z,28.90
2024-05-09T12:14:54.594Z,28.90
2024-05-09T12:16:02.656Z,28.90
2024-05-09T12:17:07.320Z,28.90
2024-05-09T12:18:14.103Z,28.80
2024-05-09T12:19:19.007Z,28.80
2024-05-09T12:20:34.349Z,28.70
2024-05-09T12:21:41.410Z,28.70
2024-05-09T12:22:46.327Z,28.60
2024-05-09T12:23:50.484Z,28.50
2024-05-09T12:24:57.579Z,28.50
2024-05-09T12:26:01.515Z,28.40
2024-05-09T12:27:06.324Z,28.40
2024-05-09T12:28:13.900Z,28.40
2024-05-09T12:29:18.228Z,28.40
2024-05-09T12:30:32.666Z,28.40
2024-05-09T12:31:44.463Z,28.40
2024-05-09T12:32:49.913Z,28.40
2024-05-09T12:33:56.877Z,28.40
2024-05-09T12:35:01.374Z,28.40
2024-05-09T12:36:08.642Z,28.40
2024-05-09T12:37:13.917Z,28.40
2024-05-09T12:38:18.855Z,28.50
2024-05-09T12:39:25.339Z,28.50
2024-05-09T12:40:36.473Z,28.50
2024-05-09T12:41:42.599Z,28.40
2024-05-09T12:42:46.622Z,28.40
2024-05-09T12:43:53.022Z,28.40
2024-05-09T12:44:57.118Z,28.40
2024-05-09T12:46:01.336Z,28.40
2024-05-09T12:47:05.972Z,28.40
2024-05-09T12:48:13.697Z,28.40
2024-05-09T12:49:24.668Z,28.40
2024-05-09T12:50:33.087Z,28.30
2024-05-09T12:51:41.118Z,28.20
2024-05-09T12:52:45.328Z,28.20
2024-05-09T12:53:52.511Z,28.10
2024-05-09T12:54:56.637Z,28.10
2024-05-09T12:56:04.877Z,28.10
2024-05-09T12:57:10.928Z,28.00
2024-05-09T12:58:15.434Z,28.00
2024-05-09T12:59:20.024Z,28.00
2024-05-09T13:00:31.713Z,27.90
2024-05-09T13:01:38.250Z,27.90
2024-05-09T13:02:43.358Z,27.90
2024-05-09T13:03:50.543Z,27.80
2024-05-09T13:04:57.717Z,27.80
2024-05-09T13:06:02.111Z,27.90
2024-05-09T13:07:09.255Z,27.90
2024-05-09T13:08:14.228Z,27.90
2024-05-09T13:09:18.151Z,27.90
2024-05-09T13:10:29.107Z,27.90
2024-05-09T13:11:39.862Z,28.00
2024-05-09T13:12:43.860Z,28.00
2024-05-09T13:13:48.036Z,28.00
2024-05-09T13:14:52.089Z,28.10
2024-05-09T13:15:59.546Z,28.10
2024-05-09T13:17:03.443Z,28.10
2024-05-09T13:18:08.419Z,28.20
2024-05-09T13:19:12.847Z,28.10
2024-05-09T13:20:28.725Z,28.20
2024-05-09T13:21:36.536Z,28.10
2024-05-09T13:22:40.697Z,28.10
2024-05-09T13:23:44.771Z,28.10
2024-05-09T13:24:51.190Z,28.00
2024-05-09T13:25:55.412Z,28.00
2024-05-09T13:26:59.290Z,28.00
2024-05-09T13:28:03.332Z,27.90
2024-05-09T13:29:10.187Z,27.90
2024-05-09T13:30:21.775Z,27.80
2024-05-09T13:31:33.665Z,27.80
2024-05-09T13:32:40.876Z,27.80
2024-05-09T13:33:45.074Z,27.70
2024-05-09T13:34:49.235Z,27.70
2024-05-09T13:35:56.056Z,27.70
2024-05-09T13:37:03.614Z,27.60
2024-05-09T13:38:07.743Z,27.60
2024-05-09T13:39:11.666Z,27.50
2024-05-09T13:40:23.219Z,27.40
2024-05-09T13:41:33.868Z,27.40
2024-05-09T13:42:37.876Z,27.40
2024-05-09T13:43:42.003Z,27.30
2024-05-09T13:44:45.903Z,27.30
2024-05-09T13:45:55.386Z,27.30
2024-05-09T13:46:59.572Z,27.30
2024-05-09T13:48:04.282Z,27.20
2024-05-09T13:49:16.900Z,27.20
2024-05-09T13:50:30.780Z,27.20
2024-05-09T13:51:41.364Z,27.20
2024-05-09T13:52:45.249Z,27.10
2024-05-09T13:53:51.770Z,27.10
2024-05-09T13:54:55.462Z,27.10
2024-05-09T13:55:59.162Z,27.10
2024-05-09T13:57:05.552Z,27.10
2024-05-09T13:58:12.478Z,27.10
2024-05-09T13:59:16.447Z,27.10
2024-05-09T14:00:37.331Z,27.10
2024-05-09T14:01:47.083Z,27.10
2024-05-09T14:02:54.637Z,27.20
2024-05-09T14:03:58.709Z,27.20
2024-05-09T14:05:05.714Z,27.20
2024-05-09T14:06:13.036Z,27.20
2024-05-09T14:07:20.174Z,27.30
2024-05-09T14:08:24.516Z,27.30
2024-05-09T14:09:32.392Z,27.40
2024-05-09T14:10:44.364Z,27.40
2024-05-09T14:11:49.399Z,27.40
2024-05-09T14:12:55.940Z,27.50
2024-05-09T14:14:00.039Z,27.50
2024-05-09T14:15:03.811Z,27.50
2024-05-09T14:16:12.821Z,27.60
2024-05-09T14:17:17.286Z,27.70
2024-05-09T14:18:21.450Z,27.70
2024-05-09T14:19:29.868Z,27.80
2024-05-09T14:20:33.740Z,27.80
2024-05-09T14:21:38.523Z,27.90
2024-05-09T14:22:47.880Z,27.90
2024-05-09T14:23:54.572Z,27.90
2024-05-09T14:24:59.238Z,27.90
2024-05-09T14:26:06.156Z,27.80
2024-05-09T14:27:15.478Z,27.80
2024-05-09T14:28:19.938Z,27.70
2024-05-09T14:29:24.922Z,27.70
2024-05-09T14:30:35.903Z,27.70
2024-05-09T14:31:44.396Z,27.60
2024-05-09T14:32:49.272Z,27.70
2024-05-09T14:33:53.482Z,27.70
2024-05-09T14:35:00.007Z,27.70